Terminal Aerodrome Forecast
Issued by NWS

Home | Current Version | Previous Version | Text Only | Print | Product List | Glossary On
Versions: 1 2 3 4 5 6 7 8 9 10 11 12 13 14 15 16 17 18 19 20 21 22 23 24 25 26 27 28 29 30 31 32 33
000
FTUS43 KDMX 261614 AAD
TAFFOD
TAF AMD
KFOD 261614Z 2616/2712 35011G18KT 3SM BR OVC006
     FM261800 36011KT 6SM BR OVC006
     FM270000 01007KT 3SM -FZDZSN OVC005
     FM270300 35007KT 2SM -SN OVC006=

USA.gov is the U.S. government's official web portal to all federal, state and local government web resources and services.